sensor_id;sensor_type;location;lat;lon;timestamp;P1;durP1;ratioP1;P2;durP2;ratioP2
74926;SDS011;63488;48.092;-1.640;2023-08-17T00:00:00;4.35;;;1.83;;
74926;SDS011;63488;48.092;-1.640;2023-08-17T00:02:26;4.60;;;1.90;;
74926;SDS011;63488;48.092;-1.640;2023-08-17T00:04:51;4.57;;;2.08;;
74926;SDS011;63488;48.092;-1.640;2023-08-17T00:07:17;3.60;;;1.48;;
74926;SDS011;63488;48.092;-1.640;2023-08-17T00:09:42;5.10;;;1.50;;
74926;SDS011;63488;48.092;-1.640;2023-08-17T00:12:08;4.95;;;1.73;;
74926;SDS011;63488;48.092;-1.640;2023-08-17T00:14:33;5.80;;;1.95;;
74926;SDS011;63488;48.092;-1.640;2023-08-17T00:16:58;4.07;;;1.70;;
74926;SDS011;63488;48.092;-1.640;2023-08-17T00:19:24;4.60;;;1.63;;
74926;SDS011;63488;48.092;-1.640;2023-08-17T00:21:50;3.55;;;1.70;;
74926;SDS011;63488;48.092;-1.640;2023-08-17T00:24:16;3.72;;;1.58;;
74926;SDS011;63488;48.092;-1.640;2023-08-17T00:26:41;7.22;;;1.90;;
74926;SDS011;63488;48.092;-1.640;2023-08-17T00:29:07;2.90;;;1.50;;
74926;SDS011;63488;48.092;-1.640;2023-08-17T00:31:32;4.85;;;1.70;;
74926;SDS011;63488;48.092;-1.640;2023-08-17T00:33:57;7.05;;;2.25;;
74926;SDS011;63488;48.092;-1.640;2023-08-17T00:36:23;4.97;;;1.85;;
74926;SDS011;63488;48.092;-1.640;2023-08-17T00:38:48;2.35;;;1.60;;
74926;SDS011;63488;48.092;-1.640;2023-08-17T00:41:13;4.70;;;1.70;;
74926;SDS011;63488;48.092;-1.640;2023-08-17T00:43:39;4.25;;;1.48;;
74926;SDS011;63488;48.092;-1.640;2023-08-17T00:46:04;4.70;;;1.30;;
74926;SDS011;63488;48.092;-1.640;2023-08-17T00:48:29;3.63;;;1.60;;
74926;SDS011;63488;48.092;-1.640;2023-08-17T00:50:56;4.13;;;1.70;;
74926;SDS011;63488;48.092;-1.640;2023-08-17T00:53:22;3.00;;;1.50;;
74926;SDS011;63488;48.092;-1.640;2023-08-17T00:55:48;5.57;;;1.85;;
74926;SDS011;63488;48.092;-1.640;2023-08-17T00:58:15;3.47;;;1.70;;
74926;SDS011;63488;48.092;-1.640;2023-08-17T01:00:40;4.20;;;1.60;;
74926;SDS011;63488;48.092;-1.640;2023-08-17T01:03:06;4.85;;;1.60;;
74926;SDS011;63488;48.092;-1.640;2023-08-17T01:05:31;2.45;;;1.48;;
74926;SDS011;63488;48.092;-1.640;2023-08-17T01:07:58;4.25;;;1.60;;
74926;SDS011;63488;48.092;-1.640;2023-08-17T01:10:23;3.05;;;1.40;;
74926;SDS011;63488;48.092;-1.640;2023-08-17T01:13:00;5.05;;;1.88;;
74926;SDS011;63488;48.092;-1.640;2023-08-17T01:15:35;4.07;;;1.58;;
74926;SDS011;63488;48.092;-1.640;2023-08-17T01:18:11;5.63;;;1.75;;
74926;SDS011;63488;48.092;-1.640;2023-08-17T01:20:39;2.63;;;1.40;;
74926;SDS011;63488;48.092;-1.640;2023-08-17T01:23:08;3.75;;;1.60;;
74926;SDS011;63488;48.092;-1.640;2023-08-17T01:25:34;4.53;;;1.70;;
74926;SDS011;63488;48.092;-1.640;2023-08-17T01:28:02;3.65;;;1.70;;
74926;SDS011;63488;48.092;-1.640;2023-08-17T01:30:27;6.88;;;1.50;;
74926;SDS011;63488;48.092;-1.640;2023-08-17T01:33:08;4.57;;;1.80;;
74926;SDS011;63488;48.092;-1.640;2023-08-17T01:35:37;5.28;;;1.80;;
74926;SDS011;63488;48.092;-1.640;2023-08-17T01:40:31;4.20;;;1.65;;
74926;SDS011;63488;48.092;-1.640;2023-08-17T01:42:57;4.38;;;1.73;;
74926;SDS011;63488;48.092;-1.640;2023-08-17T01:45:22;3.40;;;1.60;;
74926;SDS011;63488;48.092;-1.640;2023-08-17T01:47:48;2.83;;;1.63;;
74926;SDS011;63488;48.092;-1.640;2023-08-17T01:50:14;6.75;;;1.83;;
74926;SDS011;63488;48.092;-1.640;2023-08-17T01:52:39;7.10;;;1.80;;
74926;SDS011;63488;48.092;-1.640;2023-08-17T01:55:05;5.68;;;1.88;;
74926;SDS011;63488;48.092;-1.640;2023-08-17T01:57:30;3.35;;;1.20;;
74926;SDS011;63488;48.092;-1.640;2023-08-17T01:59:56;5.32;;;1.60;;
74926;SDS011;63488;48.092;-1.640;2023-08-17T02:02:21;4.13;;;1.50;;
74926;SDS011;63488;48.092;-1.640;2023-08-17T02:04:47;3.42;;;1.50;;
74926;SDS011;63488;48.092;-1.640;2023-08-17T02:07:12;4.22;;;1.88;;
74926;SDS011;63488;48.092;-1.640;2023-08-17T02:09:38;3.03;;;1.30;;
74926;SDS011;63488;48.092;-1.640;2023-08-17T02:12:03;3.97;;;1.42;;
74926;SDS011;63488;48.092;-1.640;2023-08-17T02:14:29;3.30;;;1.70;;
74926;SDS011;63488;48.092;-1.640;2023-08-17T02:16:54;3.17;;;1.77;;
74926;SDS011;63488;48.092;-1.640;2023-08-17T02:19:19;2.78;;;1.40;;
74926;SDS011;63488;48.092;-1.640;2023-08-17T02:21:45;3.20;;;1.50;;
74926;SDS011;63488;48.092;-1.640;2023-08-17T02:24:10;5.70;;;1.70;;
74926;SDS011;63488;48.092;-1.640;2023-08-17T02:26:35;2.38;;;1.63;;
74926;SDS011;63488;48.092;-1.640;2023-08-17T02:29:03;6.55;;;1.88;;
74926;SDS011;63488;48.092;-1.640;2023-08-17T02:31:28;4.72;;;1.80;;
74926;SDS011;63488;48.092;-1.640;2023-08-17T02:33:54;4.07;;;1.70;;
74926;SDS011;63488;48.092;-1.640;2023-08-17T02:36:23;2.53;;;1.40;;
74926;SDS011;63488;48.092;-1.640;2023-08-17T02:38:48;2.70;;;1.63;;
74926;SDS011;63488;48.092;-1.640;2023-08-17T02:41:13;5.38;;;1.60;;
74926;SDS011;63488;48.092;-1.640;2023-08-17T02:43:39;3.63;;;1.63;;
74926;SDS011;63488;48.092;-1.640;2023-08-17T02:46:04;4.65;;;1.67;;
74926;SDS011;63488;48.092;-1.640;2023-08-17T02:48:32;3.05;;;1.30;;
74926;SDS011;63488;48.092;-1.640;2023-08-17T02:50:58;2.25;;;1.30;;
74926;SDS011;63488;48.092;-1.640;2023-08-17T02:53:23;2.60;;;1.58;;
74926;SDS011;63488;48.092;-1.640;2023-08-17T02:55:48;4.47;;;1.40;;
74926;SDS011;63488;48.092;-1.640;2023-08-17T02:58:14;4.13;;;1.38;;
74926;SDS011;63488;48.092;-1.640;2023-08-17T03:00:39;5.65;;;1.40;;
74926;SDS011;63488;48.092;-1.640;2023-08-17T03:03:04;4.57;;;1.55;;
74926;SDS011;63488;48.092;-1.640;2023-08-17T03:05:30;3.15;;;1.40;;
74926;SDS011;63488;48.092;-1.640;2023-08-17T03:07:55;4.25;;;1.63;;
74926;SDS011;63488;48.092;-1.640;2023-08-17T03:10:21;4.07;;;1.50;;
74926;SDS011;63488;48.092;-1.640;2023-08-17T03:12:46;3.90;;;1.45;;
74926;SDS011;63488;48.092;-1.640;2023-08-17T03:15:11;3.42;;;1.70;;
74926;SDS011;63488;48.092;-1.640;2023-08-17T03:17:37;4.10;;;1.50;;
74926;SDS011;63488;48.092;-1.640;2023-08-17T03:20:02;2.47;;;1.40;;
74926;SDS011;63488;48.092;-1.640;2023-08-17T03:22:30;2.22;;;1.35;;
74926;SDS011;63488;48.092;-1.640;2023-08-17T03:24:56;4.35;;;1.75;;
74926;SDS011;63488;48.092;-1.640;2023-08-17T03:27:21;4.75;;;1.83;;
74926;SDS011;63488;48.092;-1.640;2023-08-17T03:29:47;2.75;;;1.58;;
74926;SDS011;63488;48.092;-1.640;2023-08-17T03:32:12;3.95;;;1.42;;
74926;SDS011;63488;48.092;-1.640;2023-08-17T03:34:37;5.32;;;1.50;;
74926;SDS011;63488;48.092;-1.640;2023-08-17T03:37:03;4.40;;;1.55;;
74926;SDS011;63488;48.092;-1.640;2023-08-17T03:39:28;3.88;;;1.58;;
74926;SDS011;63488;48.092;-1.640;2023-08-17T03:41:54;3.70;;;1.50;;
74926;SDS011;63488;48.092;-1.640;2023-08-17T03:44:19;2.83;;;1.50;;
74926;SDS011;63488;48.092;-1.640;2023-08-17T03:46:45;3.90;;;1.40;;
74926;SDS011;63488;48.092;-1.640;2023-08-17T03:49:10;2.42;;;1.45;;
74926;SDS011;63488;48.092;-1.640;2023-08-17T03:51:35;4.07;;;1.77;;
74926;SDS011;63488;48.092;-1.640;2023-08-17T03:54:01;2.85;;;1.30;;
74926;SDS011;63488;48.092;-1.640;2023-08-17T03:56:26;2.42;;;1.50;;
74926;SDS011;63488;48.092;-1.640;2023-08-17T03:58:52;3.83;;;1.50;;
74926;SDS011;63488;48.092;-1.640;2023-08-17T04:01:18;3.05;;;1.67;;
74926;SDS011;63488;48.092;-1.640;2023-08-17T04:03:43;3.28;;;1.48;;
74926;SDS011;63488;48.092;-1.640;2023-08-17T04:06:08;4.97;;;1.65;;
74926;SDS011;63488;48.092;-1.640;2023-08-17T04:08:36;4.82;;;1.60;;
74926;SDS011;63488;48.092;-1.640;2023-08-17T04:11:01;2.97;;;1.50;;
74926;SDS011;63488;48.092;-1.640;2023-08-17T04:13:27;2.83;;;1.30;;
74926;SDS011;63488;48.092;-1.640;2023-08-17T04:15:52;2.75;;;1.70;;
74926;SDS011;63488;48.092;-1.640;2023-08-17T04:18:18;3.80;;;1.60;;
74926;SDS011;63488;48.092;-1.640;2023-08-17T04:20:43;2.33;;;1.40;;
74926;SDS011;63488;48.092;-1.640;2023-08-17T04:23:08;3.35;;;1.40;;
74926;SDS011;63488;48.092;-1.640;2023-08-17T04:25:34;3.72;;;1.45;;
74926;SDS011;63488;48.092;-1.640;2023-08-17T04:27:59;2.95;;;1.50;;
74926;SDS011;63488;48.092;-1.640;2023-08-17T04:30:25;3.20;;;1.60;;
74926;SDS011;63488;48.092;-1.640;2023-08-17T04:32:50;3.53;;;1.50;;
74926;SDS011;63488;48.092;-1.640;2023-08-17T04:35:18;3.65;;;1.60;;
74926;SDS011;63488;48.092;-1.640;2023-08-17T04:37:43;4.35;;;1.70;;
74926;SDS011;63488;48.092;-1.640;2023-08-17T04:40:09;2.72;;;1.45;;
74926;SDS011;63488;48.092;-1.640;2023-08-17T04:42:35;2.15;;;1.40;;
74926;SDS011;63488;48.092;-1.640;2023-08-17T04:45:00;5.55;;;1.63;;
74926;SDS011;63488;48.092;-1.640;2023-08-17T04:47:26;2.30;;;1.77;;
74926;SDS011;63488;48.092;-1.640;2023-08-17T04:49:51;3.20;;;1.30;;
74926;SDS011;63488;48.092;-1.640;2023-08-17T04:52:16;3.33;;;1.52;;
74926;SDS011;63488;48.092;-1.640;2023-08-17T04:54:42;2.03;;;1.60;;
74926;SDS011;63488;48.092;-1.640;2023-08-17T04:57:07;5.88;;;1.98;;
74926;SDS011;63488;48.092;-1.640;2023-08-17T04:59:32;2.10;;;1.45;;
74926;SDS011;63488;48.092;-1.640;2023-08-17T05:01:58;1.83;;;1.20;;
74926;SDS011;63488;48.092;-1.640;2023-08-17T05:04:23;3.33;;;1.50;;
74926;SDS011;63488;48.092;-1.640;2023-08-17T05:06:48;3.83;;;1.45;;
74926;SDS011;63488;48.092;-1.640;2023-08-17T05:09:14;3.00;;;1.60;;
74926;SDS011;63488;48.092;-1.640;2023-08-17T05:11:39;6.00;;;1.70;;
74926;SDS011;63488;48.092;-1.640;2023-08-17T05:14:04;4.28;;;1.95;;
74926;SDS011;63488;48.092;-1.640;2023-08-17T05:16:30;3.00;;;1.58;;
74926;SDS011;63488;48.092;-1.640;2023-08-17T05:18:55;3.28;;;1.48;;
74926;SDS011;63488;48.092;-1.640;2023-08-17T05:21:22;3.33;;;1.60;;
74926;SDS011;63488;48.092;-1.640;2023-08-17T05:23:48;4.50;;;1.73;;
74926;SDS011;63488;48.092;-1.640;2023-08-17T05:26:13;3.45;;;1.48;;
74926;SDS011;63488;48.092;-1.640;2023-08-17T05:28:38;2.50;;;1.48;;
74926;SDS011;63488;48.092;-1.640;2023-08-17T05:31:07;2.83;;;1.60;;
74926;SDS011;63488;48.092;-1.640;2023-08-17T05:33:32;3.83;;;1.40;;
74926;SDS011;63488;48.092;-1.640;2023-08-17T05:35:58;4.40;;;1.70;;
74926;SDS011;63488;48.092;-1.640;2023-08-17T05:38:23;2.90;;;1.58;;
74926;SDS011;63488;48.092;-1.640;2023-08-17T05:40:54;2.95;;;1.40;;
74926;SDS011;63488;48.092;-1.640;2023-08-17T05:43:19;4.45;;;1.70;;
74926;SDS011;63488;48.092;-1.640;2023-08-17T05:45:44;4.03;;;2.28;;
74926;SDS011;63488;48.092;-1.640;2023-08-17T05:48:10;2.42;;;1.52;;
74926;SDS011;63488;48.092;-1.640;2023-08-17T05:50:35;4.05;;;1.73;;
74926;SDS011;63488;48.092;-1.640;2023-08-17T05:53:00;4.47;;;2.05;;
74926;SDS011;63488;48.092;-1.640;2023-08-17T05:55:26;5.30;;;1.83;;
74926;SDS011;63488;48.092;-1.640;2023-08-17T05:57:51;3.60;;;1.70;;
74926;SDS011;63488;48.092;-1.640;2023-08-17T06:00:16;3.95;;;1.90;;
74926;SDS011;63488;48.092;-1.640;2023-08-17T06:02:42;3.53;;;1.88;;
74926;SDS011;63488;48.092;-1.640;2023-08-17T06:05:08;4.25;;;2.03;;
74926;SDS011;63488;48.092;-1.640;2023-08-17T06:07:34;5.55;;;2.00;;
74926;SDS011;63488;48.092;-1.640;2023-08-17T06:09:59;3.58;;;1.80;;
74926;SDS011;63488;48.092;-1.640;2023-08-17T06:12:25;2.40;;;1.85;;
74926;SDS011;63488;48.092;-1.640;2023-08-17T06:14:50;3.50;;;1.90;;
74926;SDS011;63488;48.092;-1.640;2023-08-17T06:17:15;5.65;;;2.20;;
74926;SDS011;63488;48.092;-1.640;2023-08-17T06:19:41;6.00;;;1.80;;
74926;SDS011;63488;48.092;-1.640;2023-08-17T06:22:07;3.15;;;1.88;;
74926;SDS011;63488;48.092;-1.640;2023-08-17T06:24:32;5.18;;;2.42;;
74926;SDS011;63488;48.092;-1.640;2023-08-17T06:26:57;2.75;;;1.95;;
74926;SDS011;63488;48.092;-1.640;2023-08-17T06:29:23;3.97;;;1.90;;
74926;SDS011;63488;48.092;-1.640;2023-08-17T06:31:48;4.72;;;2.05;;
74926;SDS011;63488;48.092;-1.640;2023-08-17T06:34:13;6.47;;;2.28;;
74926;SDS011;63488;48.092;-1.640;2023-08-17T06:36:40;3.42;;;2.17;;
74926;SDS011;63488;48.092;-1.640;2023-08-17T06:39:05;3.33;;;1.80;;
74926;SDS011;63488;48.092;-1.640;2023-08-17T06:41:31;5.38;;;2.13;;
74926;SDS011;63488;48.092;-1.640;2023-08-17T06:43:56;7.47;;;2.63;;
74926;SDS011;63488;48.092;-1.640;2023-08-17T06:46:21;5.63;;;2.47;;
74926;SDS011;63488;48.092;-1.640;2023-08-17T06:48:47;6.70;;;2.40;;
74926;SDS011;63488;48.092;-1.640;2023-08-17T06:51:12;5.30;;;2.65;;
74926;SDS011;63488;48.092;-1.640;2023-08-17T06:53:37;5.22;;;2.25;;
74926;SDS011;63488;48.092;-1.640;2023-08-17T06:56:03;6.93;;;2.58;;
74926;SDS011;63488;48.092;-1.640;2023-08-17T06:58:28;5.45;;;2.60;;
74926;SDS011;63488;48.092;-1.640;2023-08-17T07:00:53;9.07;;;2.90;;
74926;SDS011;63488;48.092;-1.640;2023-08-17T07:03:19;4.65;;;2.65;;
74926;SDS011;63488;48.092;-1.640;2023-08-17T07:05:45;3.95;;;2.38;;
74926;SDS011;63488;48.092;-1.640;2023-08-17T07:08:11;4.90;;;2.95;;
74926;SDS011;63488;48.092;-1.640;2023-08-17T07:10:36;3.55;;;2.53;;
74926;SDS011;63488;48.092;-1.640;2023-08-17T07:13:01;3.85;;;2.47;;
74926;SDS011;63488;48.092;-1.640;2023-08-17T07:15:29;5.22;;;2.50;;
74926;SDS011;63488;48.092;-1.640;2023-08-17T07:17:54;5.05;;;2.80;;
74926;SDS011;63488;48.092;-1.640;2023-08-17T07:20:19;5.47;;;2.70;;
74926;SDS011;63488;48.092;-1.640;2023-08-17T07:22:45;6.15;;;3.35;;
74926;SDS011;63488;48.092;-1.640;2023-08-17T07:25:10;5.07;;;3.10;;
74926;SDS011;63488;48.092;-1.640;2023-08-17T07:27:35;6.15;;;3.70;;
74926;SDS011;63488;48.092;-1.640;2023-08-17T07:30:01;6.00;;;3.47;;
74926;SDS011;63488;48.092;-1.640;2023-08-17T07:32:26;5.22;;;3.17;;
74926;SDS011;63488;48.092;-1.640;2023-08-17T07:34:52;5.60;;;3.78;;
74926;SDS011;63488;48.092;-1.640;2023-08-17T07:37:17;5.63;;;3.33;;
74926;SDS011;63488;48.092;-1.640;2023-08-17T07:39:42;7.25;;;3.78;;
74926;SDS011;63488;48.092;-1.640;2023-08-17T07:42:08;10.52;;;4.03;;
74926;SDS011;63488;48.092;-1.640;2023-08-17T07:44:33;5.28;;;3.90;;
74926;SDS011;63488;48.092;-1.640;2023-08-17T07:47:01;6.75;;;3.95;;
74926;SDS011;63488;48.092;-1.640;2023-08-17T07:49:28;7.35;;;3.60;;
74926;SDS011;63488;48.092;-1.640;2023-08-17T07:51:53;5.78;;;3.58;;
74926;SDS011;63488;48.092;-1.640;2023-08-17T07:54:18;8.15;;;3.70;;
74926;SDS011;63488;48.092;-1.640;2023-08-17T07:56:44;5.88;;;3.15;;
74926;SDS011;63488;48.092;-1.640;2023-08-17T07:59:09;6.25;;;3.40;;
74926;SDS011;63488;48.092;-1.640;2023-08-17T08:01:35;5.82;;;3.30;;
74926;SDS011;63488;48.092;-1.640;2023-08-17T08:04:00;4.63;;;3.40;;
74926;SDS011;63488;48.092;-1.640;2023-08-17T08:06:26;6.80;;;3.45;;
74926;SDS011;63488;48.092;-1.640;2023-08-17T08:08:51;6.05;;;3.63;;
74926;SDS011;63488;48.092;-1.640;2023-08-17T08:11:16;5.40;;;3.30;;
74926;SDS011;63488;48.092;-1.640;2023-08-17T08:13:42;6.43;;;3.70;;
74926;SDS011;63488;48.092;-1.640;2023-08-17T08:16:07;7.40;;;3.88;;
74926;SDS011;63488;48.092;-1.640;2023-08-17T08:18:32;7.07;;;3.47;;
74926;SDS011;63488;48.092;-1.640;2023-08-17T08:20:58;7.40;;;4.00;;
74926;SDS011;63488;48.092;-1.640;2023-08-17T08:23:23;5.55;;;3.42;;
74926;SDS011;63488;48.092;-1.640;2023-08-17T08:25:48;7.47;;;4.07;;
74926;SDS011;63488;48.092;-1.640;2023-08-17T08:28:14;6.72;;;3.78;;
74926;SDS011;63488;48.092;-1.640;2023-08-17T08:30:39;7.18;;;4.10;;
74926;SDS011;63488;48.092;-1.640;2023-08-17T08:33:05;9.40;;;4.60;;
74926;SDS011;63488;48.092;-1.640;2023-08-17T08:35:30;5.70;;;3.90;;
74926;SDS011;63488;48.092;-1.640;2023-08-17T08:37:55;8.80;;;4.72;;
74926;SDS011;63488;48.092;-1.640;2023-08-17T08:40:28;5.63;;;4.35;;
74926;SDS011;63488;48.092;-1.640;2023-08-17T08:42:54;8.48;;;4.20;;
74926;SDS011;63488;48.092;-1.640;2023-08-17T08:45:20;8.00;;;4.20;;
74926;SDS011;63488;48.092;-1.640;2023-08-17T08:47:46;6.93;;;3.75;;
74926;SDS011;63488;48.092;-1.640;2023-08-17T08:50:12;7.68;;;4.30;;
74926;SDS011;63488;48.092;-1.640;2023-08-17T08:52:41;7.30;;;4.68;;
74926;SDS011;63488;48.092;-1.640;2023-08-17T08:55:11;7.43;;;4.45;;
74926;SDS011;63488;48.092;-1.640;2023-08-17T08:57:39;8.18;;;4.65;;
74926;SDS011;63488;48.092;-1.640;2023-08-17T09:00:06;7.07;;;4.60;;
74926;SDS011;63488;48.092;-1.640;2023-08-17T09:02:32;8.25;;;4.32;;
74926;SDS011;63488;48.092;-1.640;2023-08-17T09:04:58;8.10;;;4.35;;
74926;SDS011;63488;48.092;-1.640;2023-08-17T09:07:24;6.53;;;4.30;;
74926;SDS011;63488;48.092;-1.640;2023-08-17T09:09:50;6.55;;;4.40;;
74926;SDS011;63488;48.092;-1.640;2023-08-17T09:12:16;6.45;;;4.80;;
74926;SDS011;63488;48.092;-1.640;2023-08-17T09:14:41;11.90;;;4.70;;
74926;SDS011;63488;48.092;-1.640;2023-08-17T09:17:07;8.43;;;4.50;;
74926;SDS011;63488;48.092;-1.640;2023-08-17T09:19:32;5.95;;;4.78;;
74926;SDS011;63488;48.092;-1.640;2023-08-17T09:21:58;8.38;;;5.03;;
74926;SDS011;63488;48.092;-1.640;2023-08-17T09:24:24;8.23;;;4.43;;
74926;SDS011;63488;48.092;-1.640;2023-08-17T09:26:49;6.13;;;4.80;;
74926;SDS011;63488;48.092;-1.640;2023-08-17T09:29:18;12.48;;;4.40;;
74926;SDS011;63488;48.092;-1.640;2023-08-17T09:31:45;7.35;;;4.70;;
74926;SDS011;63488;48.092;-1.640;2023-08-17T09:34:10;8.98;;;4.70;;
74926;SDS011;63488;48.092;-1.640;2023-08-17T09:36:36;7.72;;;4.70;;
74926;SDS011;63488;48.092;-1.640;2023-08-17T09:39:02;10.82;;;5.10;;
74926;SDS011;63488;48.092;-1.640;2023-08-17T09:41:28;10.25;;;4.60;;
74926;SDS011;63488;48.092;-1.640;2023-08-17T09:43:56;9.40;;;4.78;;
74926;SDS011;63488;48.092;-1.640;2023-08-17T09:46:22;5.80;;;4.28;;
74926;SDS011;63488;48.092;-1.640;2023-08-17T09:48:49;6.45;;;3.97;;
74926;SDS011;63488;48.092;-1.640;2023-08-17T09:51:14;7.25;;;4.25;;
74926;SDS011;63488;48.092;-1.640;2023-08-17T09:53:40;7.57;;;4.18;;
74926;SDS011;63488;48.092;-1.640;2023-08-17T09:56:06;5.40;;;4.38;;
74926;SDS011;63488;48.092;-1.640;2023-08-17T09:58:36;6.20;;;4.45;;
74926;SDS011;63488;48.092;-1.640;2023-08-17T10:01:03;6.60;;;4.25;;
74926;SDS011;63488;48.092;-1.640;2023-08-17T10:03:28;6.45;;;4.07;;
74926;SDS011;63488;48.092;-1.640;2023-08-17T10:05:56;10.15;;;4.45;;
74926;SDS011;63488;48.092;-1.640;2023-08-17T10:08:24;7.20;;;4.07;;
74926;SDS011;63488;48.092;-1.640;2023-08-17T10:10:50;9.98;;;4.22;;
74926;SDS011;63488;48.092;-1.640;2023-08-17T10:13:16;5.40;;;4.13;;
74926;SDS011;63488;48.092;-1.640;2023-08-17T10:18:29;8.30;;;4.30;;
74926;SDS011;63488;48.092;-1.640;2023-08-17T10:21:06;6.72;;;4.32;;
74926;SDS011;63488;48.092;-1.640;2023-08-17T10:23:32;7.63;;;4.40;;
74926;SDS011;63488;48.092;-1.640;2023-08-17T10:25:59;6.20;;;4.07;;
74926;SDS011;63488;48.092;-1.640;2023-08-17T10:28:25;7.68;;;4.60;;
74926;SDS011;63488;48.092;-1.640;2023-08-17T10:30:51;7.72;;;4.65;;
74926;SDS011;63488;48.092;-1.640;2023-08-17T10:33:16;6.47;;;4.88;;
74926;SDS011;63488;48.092;-1.640;2023-08-17T10:35:42;10.13;;;4.07;;
74926;SDS011;63488;48.092;-1.640;2023-08-17T10:38:08;9.10;;;4.25;;
74926;SDS011;63488;48.092;-1.640;2023-08-17T10:40:38;5.55;;;4.03;;
74926;SDS011;63488;48.092;-1.640;2023-08-17T10:43:04;6.60;;;4.45;;
74926;SDS011;63488;48.092;-1.640;2023-08-17T10:45:30;7.45;;;3.63;;
74926;SDS011;63488;48.092;-1.640;2023-08-17T10:50:30;5.40;;;3.67;;
74926;SDS011;63488;48.092;-1.640;2023-08-17T10:52:55;6.57;;;3.40;;
74926;SDS011;63488;48.092;-1.640;2023-08-17T10:55:40;5.28;;;3.63;;
74926;SDS011;63488;48.092;-1.640;2023-08-17T10:58:06;6.35;;;3.58;;
74926;SDS011;63488;48.092;-1.640;2023-08-17T11:00:36;8.55;;;3.88;;
74926;SDS011;63488;48.092;-1.640;2023-08-17T11:05:36;6.25;;;3.53;;
74926;SDS011;63488;48.092;-1.640;2023-08-17T11:08:02;5.00;;;3.13;;
74926;SDS011;63488;48.092;-1.640;2023-08-17T11:10:28;4.97;;;3.33;;
74926;SDS011;63488;48.092;-1.640;2023-08-17T11:12:55;5.88;;;3.53;;
74926;SDS011;63488;48.092;-1.640;2023-08-17T11:17:49;7.27;;;3.60;;
74926;SDS011;63488;48.092;-1.640;2023-08-17T11:20:14;5.43;;;3.30;;
74926;SDS011;63488;48.092;-1.640;2023-08-17T11:22:40;5.22;;;3.45;;
74926;SDS011;63488;48.092;-1.640;2023-08-17T11:25:05;5.30;;;3.35;;
74926;SDS011;63488;48.092;-1.640;2023-08-17T11:27:32;8.00;;;3.58;;
74926;SDS011;63488;48.092;-1.640;2023-08-17T11:29:58;6.00;;;3.45;;
74926;SDS011;63488;48.092;-1.640;2023-08-17T11:32:23;5.90;;;3.72;;
74926;SDS011;63488;48.092;-1.640;2023-08-17T11:34:49;5.97;;;3.20;;
74926;SDS011;63488;48.092;-1.640;2023-08-17T11:37:15;4.60;;;3.28;;
74926;SDS011;63488;48.092;-1.640;2023-08-17T11:39:41;6.63;;;3.42;;
74926;SDS011;63488;48.092;-1.640;2023-08-17T11:42:06;5.85;;;3.20;;
74926;SDS011;63488;48.092;-1.640;2023-08-17T11:44:32;7.18;;;3.47;;
74926;SDS011;63488;48.092;-1.640;2023-08-17T11:46:58;4.88;;;3.08;;
74926;SDS011;63488;48.092;-1.640;2023-08-17T11:49:23;5.22;;;3.40;;
74926;SDS011;63488;48.092;-1.640;2023-08-17T11:51:49;6.95;;;3.10;;
74926;SDS011;63488;48.092;-1.640;2023-08-17T11:54:16;3.75;;;3.00;;
74926;SDS011;63488;48.092;-1.640;2023-08-17T11:56:41;5.85;;;3.58;;
74926;SDS011;63488;48.092;-1.640;2023-08-17T11:59:10;7.45;;;3.20;;
74926;SDS011;63488;48.092;-1.640;2023-08-17T12:01:36;5.13;;;2.67;;
74926;SDS011;63488;48.092;-1.640;2023-08-17T12:04:03;6.32;;;2.80;;
74926;SDS011;63488;48.092;-1.640;2023-08-17T12:06:29;5.43;;;2.95;;
74926;SDS011;63488;48.092;-1.640;2023-08-17T12:08:55;5.88;;;3.13;;
74926;SDS011;63488;48.092;-1.640;2023-08-17T12:11:20;5.13;;;2.85;;
74926;SDS011;63488;48.092;-1.640;2023-08-17T12:13:49;3.33;;;2.75;;
74926;SDS011;63488;48.092;-1.640;2023-08-17T12:16:16;3.58;;;2.63;;
74926;SDS011;63488;48.092;-1.640;2023-08-17T12:18:43;4.40;;;2.60;;
74926;SDS011;63488;48.092;-1.640;2023-08-17T12:21:08;5.30;;;3.10;;
74926;SDS011;63488;48.092;-1.640;2023-08-17T12:23:34;3.67;;;2.90;;
74926;SDS011;63488;48.092;-1.640;2023-08-17T12:25:59;3.88;;;2.75;;
74926;SDS011;63488;48.092;-1.640;2023-08-17T12:28:25;4.72;;;2.97;;
74926;SDS011;63488;48.092;-1.640;2023-08-17T12:31:00;4.00;;;2.90;;
74926;SDS011;63488;48.092;-1.640;2023-08-17T12:33:25;3.97;;;2.75;;
74926;SDS011;63488;48.092;-1.640;2023-08-17T12:35:51;4.50;;;2.75;;
74926;SDS011;63488;48.092;-1.640;2023-08-17T12:38:16;3.95;;;2.67;;
74926;SDS011;63488;48.092;-1.640;2023-08-17T12:40:41;5.38;;;2.47;;
74926;SDS011;63488;48.092;-1.640;2023-08-17T12:43:07;3.17;;;2.80;;
74926;SDS011;63488;48.092;-1.640;2023-08-17T12:45:32;4.45;;;2.55;;
74926;SDS011;63488;48.092;-1.640;2023-08-17T12:47:57;7.72;;;2.78;;
74926;SDS011;63488;48.092;-1.640;2023-08-17T12:50:23;5.22;;;2.67;;
74926;SDS011;63488;48.092;-1.640;2023-08-17T12:52:48;4.82;;;2.72;;
74926;SDS011;63488;48.092;-1.640;2023-08-17T12:55:13;4.32;;;2.60;;
74926;SDS011;63488;48.092;-1.640;2023-08-17T12:57:39;3.83;;;2.63;;
74926;SDS011;63488;48.092;-1.640;2023-08-17T13:00:04;3.53;;;2.50;;
74926;SDS011;63488;48.092;-1.640;2023-08-17T13:02:30;4.82;;;2.50;;
74926;SDS011;63488;48.092;-1.640;2023-08-17T13:04:55;4.28;;;2.88;;
74926;SDS011;63488;48.092;-1.640;2023-08-17T13:07:21;3.05;;;2.30;;
74926;SDS011;63488;48.092;-1.640;2023-08-17T13:09:46;7.45;;;2.75;;
74926;SDS011;63488;48.092;-1.640;2023-08-17T13:12:11;5.50;;;2.60;;
74926;SDS011;63488;48.092;-1.640;2023-08-17T13:14:37;4.88;;;2.65;;
74926;SDS011;63488;48.092;-1.640;2023-08-17T13:17:02;4.30;;;2.65;;
74926;SDS011;63488;48.092;-1.640;2023-08-17T13:19:28;6.78;;;2.80;;
74926;SDS011;63488;48.092;-1.640;2023-08-17T13:21:53;5.25;;;3.10;;
74926;SDS011;63488;48.092;-1.640;2023-08-17T13:24:19;5.55;;;2.75;;
74926;SDS011;63488;48.092;-1.640;2023-08-17T13:26:44;5.70;;;2.65;;
74926;SDS011;63488;48.092;-1.640;2023-08-17T13:29:09;5.85;;;3.10;;
74926;SDS011;63488;48.092;-1.640;2023-08-17T13:31:35;4.28;;;2.80;;
74926;SDS011;63488;48.092;-1.640;2023-08-17T13:34:00;4.03;;;3.05;;
74926;SDS011;63488;48.092;-1.640;2023-08-17T13:36:25;5.95;;;2.92;;
74926;SDS011;63488;48.092;-1.640;2023-08-17T13:38:51;5.25;;;2.88;;
74926;SDS011;63488;48.092;-1.640;2023-08-17T13:41:16;6.82;;;2.53;;
74926;SDS011;63488;48.092;-1.640;2023-08-17T13:43:41;4.60;;;2.90;;
74926;SDS011;63488;48.092;-1.640;2023-08-17T13:46:07;5.72;;;2.90;;
74926;SDS011;63488;48.092;-1.640;2023-08-17T13:48:32;4.15;;;2.42;;
74926;SDS011;63488;48.092;-1.640;2023-08-17T13:50:58;5.97;;;3.22;;
74926;SDS011;63488;48.092;-1.640;2023-08-17T13:53:23;5.28;;;2.90;;
74926;SDS011;63488;48.092;-1.640;2023-08-17T13:55:48;5.90;;;2.58;;
74926;SDS011;63488;48.092;-1.640;2023-08-17T13:58:14;4.70;;;2.60;;
74926;SDS011;63488;48.092;-1.640;2023-08-17T14:00:40;4.75;;;3.10;;
74926;SDS011;63488;48.092;-1.640;2023-08-17T14:03:06;7.38;;;2.85;;
74926;SDS011;63488;48.092;-1.640;2023-08-17T14:05:31;5.43;;;2.60;;
74926;SDS011;63488;48.092;-1.640;2023-08-17T14:07:56;6.05;;;2.72;;
74926;SDS011;63488;48.092;-1.640;2023-08-17T14:10:22;4.10;;;2.53;;
74926;SDS011;63488;48.092;-1.640;2023-08-17T14:12:47;4.75;;;2.63;;
74926;SDS011;63488;48.092;-1.640;2023-08-17T14:15:13;4.15;;;2.70;;
74926;SDS011;63488;48.092;-1.640;2023-08-17T14:17:39;6.80;;;3.10;;
74926;SDS011;63488;48.092;-1.640;2023-08-17T14:20:04;5.72;;;2.67;;
74926;SDS011;63488;48.092;-1.640;2023-08-17T14:22:30;5.72;;;3.10;;
74926;SDS011;63488;48.092;-1.640;2023-08-17T14:24:55;5.25;;;2.55;;
74926;SDS011;63488;48.092;-1.640;2023-08-17T14:27:21;3.65;;;2.58;;
74926;SDS011;63488;48.092;-1.640;2023-08-17T14:29:46;6.10;;;2.92;;
74926;SDS011;63488;48.092;-1.640;2023-08-17T14:32:12;4.32;;;3.08;;
74926;SDS011;63488;48.092;-1.640;2023-08-17T14:34:37;4.35;;;2.72;;
74926;SDS011;63488;48.092;-1.640;2023-08-17T14:37:02;5.22;;;2.55;;